PHDNM EHEH-EHEH

Flight info

Callsign PHDNM
Flight time N/A
Altitude 1000
Route EHEH TANGO // EHRD ROMEO
Aircraft DA40/L-V/N

Departure

Time 2026-05-05 13:04
Airport Eindhoven Airport (EHEH)

Arrival

Time N/A
Airport Eindhoven Airport (EHEH)
Time Latitude Longitude Altitude Speed Heading
2026-05-05 12:54 51.45777 5.37770 68 ft 0 kts 55°
2026-05-05 12:57 51.45779 5.37774 68 ft 2 kts 53°
2026-05-05 12:57 51.45780 5.37777 68 ft 0 kts 52°
2026-05-05 12:58 51.45772 5.37788 66 ft 1 kts 52°
2026-05-05 12:58 51.45793 5.37823 67 ft 8 kts 41°
2026-05-05 12:58 51.45850 5.37894 68 ft 14 kts 38°
2026-05-05 12:58 51.45952 5.38018 68 ft 22 kts 40°
2026-05-05 12:59 51.46049 5.38164 68 ft 15 kts 73°
2026-05-05 12:59 51.45996 5.38255 69 ft 12 kts 197°
2026-05-05 12:59 51.45907 5.38171 66 ft 20 kts 212°
2026-05-05 13:00 51.45565 5.37791 65 ft 37 kts 215°
2026-05-05 13:00 51.45369 5.37570 69 ft 31 kts 216°
2026-05-05 13:01 51.44908 5.37054 69 ft 15 kts 218°
2026-05-05 13:01 51.44846 5.36984 69 ft 11 kts 212°
2026-05-05 13:01 51.44786 5.36995 69 ft 9 kts 131°
2026-05-05 13:01 51.44775 5.37012 69 ft 0 kts 139°
2026-05-05 13:02 51.44769 5.37021 69 ft 3 kts 136°
2026-05-05 13:02 51.44744 5.37062 70 ft 7 kts 131°
2026-05-05 13:02 51.44758 5.37149 70 ft 22 kts 30°
2026-05-05 13:02 51.44984 5.37405 69 ft 54 kts 32°
2026-05-05 13:03 51.45293 5.37771 181 ft 58 kts 32°
2026-05-05 13:03 51.45688 5.37826 331 ft 71 kts 320°
2026-05-05 13:03 51.46029 5.37154 499 ft 82 kts 312°
2026-05-05 13:03 51.46327 5.36354 672 ft 94 kts 308°
2026-05-05 13:04 51.46734 5.35434 773 ft 108 kts 312°
2026-05-05 13:04 51.47196 5.34447 903 ft 118 kts 312°
2026-05-05 13:04 51.47710 5.33359 937 ft 126 kts 313°
2026-05-05 13:04 51.48230 5.32212 985 ft 128 kts 313°
2026-05-05 13:05 51.48755 5.31043 1045 ft 129 kts 311°
2026-05-05 13:05 51.49281 5.29882 998 ft 128 kts 312°
2026-05-05 13:05 51.49810 5.28710 896 ft 130 kts 312°
2026-05-05 13:05 51.50410 5.27676 884 ft 123 kts 323°
2026-05-05 13:06 51.51105 5.27050 887 ft 110 kts 346°
2026-05-05 13:06 51.51815 5.26687 889 ft 105 kts 351°
2026-05-05 13:06 51.52542 5.26495 894 ft 107 kts 358°
2026-05-05 13:06 51.53286 5.26385 891 ft 108 kts 358°
2026-05-05 13:07 51.54034 5.26293 885 ft 106 kts 358°
2026-05-05 13:07 51.54757 5.26188 889 ft 105 kts 358°
2026-05-05 13:07 51.55501 5.26082 899 ft 109 kts 359°
2026-05-05 13:07 51.56270 5.25955 900 ft 113 kts 358°
2026-05-05 13:08 51.57044 5.25853 892 ft 113 kts 358°
2026-05-05 13:08 51.57821 5.25705 888 ft 113 kts 348°
2026-05-05 13:08 51.58584 5.25340 892 ft 114 kts 346°
2026-05-05 13:08 51.59343 5.24955 891 ft 115 kts 346°
2026-05-05 13:09 51.60085 5.24498 887 ft 114 kts 338°
2026-05-05 13:09 51.60765 5.23899 885 ft 111 kts 336°
2026-05-05 13:09 51.61432 5.23282 887 ft 108 kts 336°
2026-05-05 13:09 51.62069 5.22670 890 ft 108 kts 336°
2026-05-05 13:10 51.62733 5.22067 893 ft 111 kts 336°
2026-05-05 13:10 51.63415 5.21471 893 ft 112 kts 336°
2026-05-05 13:10 51.64094 5.20867 889 ft 111 kts 336°
2026-05-05 13:10 51.64773 5.20287 889 ft 109 kts 337°
2026-05-05 13:11 51.65433 5.19699 889 ft 107 kts 336°
2026-05-05 13:11 51.66082 5.19119 891 ft 107 kts 336°
2026-05-05 13:11 51.66732 5.18537 889 ft 108 kts 334°
2026-05-05 13:11 51.67208 5.17577 890 ft 113 kts 304°
2026-05-05 13:12 51.67576 5.16459 890 ft 114 kts 304°
2026-05-05 13:12 51.67932 5.15323 889 ft 113 kts 303°
2026-05-05 13:12 51.68283 5.14186 889 ft 113 kts 304°
2026-05-05 13:12 51.68631 5.13048 894 ft 114 kts 303°
2026-05-05 13:13 51.68986 5.11888 897 ft 117 kts 303°
2026-05-05 13:13 51.69352 5.10714 891 ft 117 kts 302°
2026-05-05 13:13 51.69735 5.09567 892 ft 116 kts 304°
2026-05-05 13:13 51.70119 5.08413 895 ft 118 kts 304°
2026-05-05 13:14 51.70512 5.07236 897 ft 119 kts 308°
2026-05-05 13:14 51.70967 5.06113 896 ft 120 kts 308°
2026-05-05 13:14 51.71431 5.05011 893 ft 117 kts 309°
2026-05-05 13:14 51.71895 5.03947 895 ft 115 kts 310°
2026-05-05 13:15 51.72342 5.02876 894 ft 115 kts 311°
2026-05-05 13:15 51.72804 5.01812 894 ft 116 kts 313°
2026-05-05 13:15 51.73261 5.00750 891 ft 114 kts 313°
2026-05-05 13:15 51.73707 4.99698 890 ft 112 kts 313°
2026-05-05 13:16 51.74161 4.98664 897 ft 115 kts 313°
2026-05-05 13:16 51.74632 4.97613 893 ft 116 kts 313°
2026-05-05 13:16 51.75096 4.96561 889 ft 114 kts 312°
2026-05-05 13:16 51.75553 4.95538 892 ft 112 kts 313°
2026-05-05 13:17 51.76002 4.94522 890 ft 111 kts 311°
2026-05-05 13:17 51.76455 4.93514 888 ft 110 kts 313°
2026-05-05 13:17 51.76901 4.92517 888 ft 109 kts 312°
2026-05-05 13:17 51.77353 4.91538 888 ft 108 kts 314°
2026-05-05 13:18 51.77787 4.90557 891 ft 108 kts 313°
2026-05-05 13:18 51.78224 4.89552 895 ft 111 kts 312°
2026-05-05 13:18 51.78686 4.88528 899 ft 115 kts 312°
2026-05-05 13:18 51.79164 4.87479 900 ft 117 kts 312°
2026-05-05 13:19 51.79655 4.86419 903 ft 118 kts 312°
2026-05-05 13:19 51.80153 4.85352 904 ft 120 kts 313°
2026-05-05 13:19 51.80646 4.84266 902 ft 120 kts 313°
2026-05-05 13:19 51.81137 4.83170 902 ft 120 kts 312°
2026-05-05 13:20 51.81637 4.82089 899 ft 119 kts 312°
2026-05-05 13:20 51.81952 4.80847 888 ft 120 kts 291°
2026-05-05 13:20 51.82178 4.79578 894 ft 117 kts 292°
2026-05-05 13:20 51.82399 4.78309 897 ft 118 kts 291°
2026-05-05 13:21 51.82625 4.77009 901 ft 122 kts 292°
2026-05-05 13:21 51.82845 4.75670 898 ft 124 kts 291°
2026-05-05 13:21 51.83052 4.74319 900 ft 124 kts 291°
2026-05-05 13:21 51.83273 4.72959 901 ft 125 kts 291°
2026-05-05 13:22 51.83517 4.71621 899 ft 123 kts 291°
2026-05-05 13:22 51.83746 4.70307 902 ft 123 kts 292°
2026-05-05 13:22 51.83967 4.68955 907 ft 126 kts 291°
2026-05-05 13:22 51.84198 4.67565 907 ft 127 kts 291°
2026-05-05 13:23 51.84439 4.66195 900 ft 129 kts 291°
2026-05-05 13:23 51.84689 4.64809 893 ft 127 kts 291°
2026-05-05 13:23 51.84936 4.63464 891 ft 123 kts 292°
2026-05-05 13:23 51.85166 4.62140 897 ft 123 kts 291°
2026-05-05 13:24 51.85397 4.60787 899 ft 126 kts 291°
2026-05-05 13:24 51.85818 4.59561 899 ft 125 kts 310°
2026-05-05 13:24 51.86345 4.58440 899 ft 126 kts 315°
2026-05-05 13:24 51.86881 4.57312 899 ft 127 kts 314°
2026-05-05 13:25 51.87498 4.56339 898 ft 123 kts 333°
2026-05-05 13:25 51.88233 4.55638 900 ft 123 kts 336°
2026-05-05 13:25 51.88967 4.54942 900 ft 122 kts 335°
2026-05-05 13:25 51.89693 4.54256 948 ft 119 kts 334°
2026-05-05 13:26 51.90401 4.53606 1002 ft 116 kts 336°
2026-05-05 13:26 51.91095 4.52964 1006 ft 114 kts 335°
2026-05-05 13:26 51.91807 4.52464 998 ft 110 kts 351°
2026-05-05 13:26 51.92578 4.52293 1020 ft 112 kts
2026-05-05 13:27 51.93314 4.52263 1246 ft 103 kts
2026-05-05 13:27 51.94015 4.52107 1359 ft 107 kts 335°
2026-05-05 13:27 51.94268 4.50994 1460 ft 114 kts 264°
2026-05-05 13:27 51.94144 4.49695 1484 ft 117 kts 264°
2026-05-05 13:28 51.94005 4.48390 1534 ft 117 kts 263°
2026-05-05 13:28 51.93863 4.47042 1525 ft 123 kts 274°
2026-05-05 13:28 51.94183 4.45847 1554 ft 117 kts 310°
2026-05-05 13:28 51.94684 4.44779 1470 ft 121 kts 316°
2026-05-05 13:29 51.95279 4.43882 1503 ft 115 kts 326°
2026-05-05 13:29 51.95840 4.42998 1477 ft 110 kts 307°
2026-05-05 13:29 51.95830 4.41778 1319 ft 112 kts 241°
2026-05-05 13:29 51.95384 4.40782 1169 ft 109 kts 237°
2026-05-05 13:30 51.95105 4.40105 961 ft 109 kts 242°
2026-05-05 13:30 51.94632 4.39305 734 ft 89 kts 180°
2026-05-05 13:30 51.94280 4.39848 608 ft 69 kts 90°
2026-05-05 13:30 51.94338 4.40609 522 ft 69 kts 64°
2026-05-05 13:31 51.94583 4.41282 430 ft 68 kts 52°
2026-05-05 13:31 51.94842 4.41911 332 ft 65 kts 55°
2026-05-05 13:31 51.95079 4.42507 199 ft 63 kts 57°
2026-05-05 13:31 51.95322 4.43111 47 ft 64 kts 57°
2026-05-05 13:32 51.95542 4.43674 -5 ft 51 kts 59°
2026-05-05 13:32 51.95724 4.44129 -5 ft 57 kts 57°
2026-05-05 13:32 51.95962 4.44718 85 ft 64 kts 56°
2026-05-05 13:32 51.96206 4.45312 203 ft 64 kts 55°
2026-05-05 13:33 51.96475 4.45869 349 ft 65 kts 34°
2026-05-05 13:33 51.96795 4.45371 391 ft 103 kts 267°
2026-05-05 13:33 51.96589 4.44196 479 ft 114 kts 248°
2026-05-05 13:33 51.96209 4.43031 549 ft 125 kts 242°
2026-05-05 13:34 51.95767 4.41805 548 ft 124 kts 241°
2026-05-05 13:34 51.95305 4.40591 527 ft 127 kts 227°
2026-05-05 13:34 51.94723 4.40803 549 ft 91 kts 101°
2026-05-05 13:34 51.94779 4.41720 394 ft 73 kts 65°
2026-05-05 13:35 51.95018 4.42357 209 ft 60 kts 57°
2026-05-05 13:35 51.95238 4.42893 52 ft 55 kts 54°
2026-05-05 13:35 51.95444 4.43412 -5 ft 53 kts 57°
2026-05-05 13:35 51.95653 4.43921 9 ft 65 kts 55°
2026-05-05 13:36 51.95905 4.44571 145 ft 70 kts 57°
2026-05-05 13:36 51.96197 4.45228 318 ft 73 kts 44°
2026-05-05 13:36 51.96669 4.45011 441 ft 100 kts 297°
2026-05-05 13:36 51.96517 4.43856 518 ft 116 kts 242°
2026-05-05 13:37 51.96100 4.42681 566 ft 124 kts 239°
2026-05-05 13:37 51.95648 4.41477 549 ft 128 kts 241°
2026-05-05 13:37 51.95188 4.40256 537 ft 127 kts 223°
2026-05-05 13:37 51.94519 4.40351 523 ft 92 kts 120°
2026-05-05 13:38 51.94553 4.41231 401 ft 81 kts 53°
2026-05-05 13:38 51.94875 4.41975 280 ft 75 kts 57°
2026-05-05 13:38 51.95136 4.42633 98 ft 64 kts 58°
2026-05-05 13:38 51.95358 4.43192 16 ft 56 kts 57°
2026-05-05 13:39 51.95560 4.43700 6 ft 53 kts 55°
2026-05-05 13:39 51.95784 4.44238 76 ft 60 kts 56°
2026-05-05 13:39 51.96019 4.44825 199 ft 64 kts 57°
2026-05-05 13:39 51.96432 4.45003 335 ft 79 kts 340°
2026-05-05 13:40 51.96609 4.44098 442 ft 102 kts 256°
2026-05-05 13:40 51.96237 4.43028 523 ft 116 kts 238°
2026-05-05 13:40 51.95813 4.41867 538 ft 123 kts 242°
2026-05-05 13:40 51.95400 4.40637 535 ft 125 kts 242°
2026-05-05 13:41 51.94757 4.40316 560 ft 98 kts 131°
2026-05-05 13:41 51.94673 4.41280 470 ft 89 kts 71°
2026-05-05 13:41 51.94944 4.42170 258 ft 87 kts 54°
2026-05-05 13:41 51.95223 4.42864 73 ft 60 kts 58°
2026-05-05 13:42 51.95434 4.43386 -3 ft 51 kts 57°
2026-05-05 13:42 51.95620 4.43859 -6 ft 58 kts 57°
2026-05-05 13:42 51.95849 4.44419 86 ft 64 kts 54°
2026-05-05 13:42 51.96137 4.44973 214 ft 63 kts 34°
2026-05-05 13:43 51.96473 4.44524 304 ft 95 kts 276°
2026-05-05 13:43 51.96353 4.43406 425 ft 109 kts 248°
2026-05-05 13:43 51.95953 4.42278 515 ft 119 kts 240°
2026-05-05 13:43 51.95522 4.41096 564 ft 126 kts 241°
2026-05-05 13:44 51.94848 4.40727 599 ft 100 kts 129°
2026-05-05 13:44 51.94759 4.41627 499 ft 81 kts 68°
2026-05-05 13:44 51.94994 4.42323 266 ft 62 kts 40°
2026-05-05 13:44 51.95232 4.42886 96 ft 59 kts 55°
2026-05-05 13:45 51.95445 4.43418 -3 ft 54 kts 56°
2026-05-05 13:45 51.95648 4.43922 21 ft 59 kts 56°
2026-05-05 13:45 51.95892 4.44510 146 ft 65 kts 56°
2026-05-05 13:45 51.96279 4.44695 314 ft 82 kts 324°
2026-05-05 13:46 51.96351 4.43690 480 ft 104 kts 254°
2026-05-05 13:46 51.95982 4.42603 652 ft 109 kts 245°
2026-05-05 13:46 51.96078 4.41500 601 ft 104 kts 320°
2026-05-05 13:46 51.96696 4.41459 526 ft 94 kts 45°
2026-05-05 13:47 51.96581 4.42390 492 ft 110 kts 143°
2026-05-05 13:47 51.95894 4.41977 479 ft 118 kts 252°
2026-05-05 13:47 51.96190 4.41017 454 ft 94 kts 349°
2026-05-05 13:47 51.96676 4.41376 446 ft 81 kts 71°
2026-05-05 13:48 51.96339 4.42123 431 ft 101 kts 151°
2026-05-05 13:48 51.95698 4.41849 480 ft 103 kts 237°
2026-05-05 13:48 51.95389 4.40781 482 ft 105 kts 241°
2026-05-05 13:48 51.95078 4.39713 506 ft 104 kts 249°
2026-05-05 13:49 51.94864 4.38658 491 ft 95 kts 276°
2026-05-05 13:49 51.95212 4.37989 427 ft 78 kts
2026-05-05 13:49 51.95537 4.38502 425 ft 73 kts 84°
2026-05-05 13:49 51.95135 4.38980 427 ft 92 kts 187°
2026-05-05 13:50 51.94577 4.38358 433 ft 103 kts 192°
2026-05-05 13:50 51.93943 4.38609 491 ft 91 kts 111°
2026-05-05 13:50 51.94016 4.39602 480 ft 99 kts 69°
2026-05-05 13:50 51.94337 4.40605 383 ft 91 kts 58°
2026-05-05 13:51 51.94595 4.41291 297 ft 60 kts 58°
2026-05-05 13:51 51.94805 4.41811 205 ft 53 kts 59°
2026-05-05 13:51 51.95000 4.42302 126 ft 52 kts 58°
2026-05-05 13:51 51.95203 4.42802 63 ft 55 kts 57°
2026-05-05 13:52 51.95406 4.43320 -5 ft 48 kts 58°
2026-05-05 13:52 51.95492 4.43536 -7 ft 7 kts 59°
2026-05-05 13:52 51.95445 4.43569 -7 ft 18 kts 201°
2026-05-05 13:52 51.95324 4.43426 -6 ft 17 kts 212°
2026-05-05 13:53 51.95271 4.43417 -6 ft 0 kts 169°
2026-05-05 13:53 51.95263 4.43419 -6 ft 8 kts 173°
2026-05-05 13:53 51.95217 4.43333 -6 ft 15 kts 235°
2026-05-05 13:53 51.95146 4.43149 -6 ft 24 kts 247°
2026-05-05 13:54 51.95053 4.42901 -6 ft 25 kts 239°
2026-05-05 13:54 51.95019 4.42811 -6 ft 3 kts 263°
2026-05-05 13:54 51.95022 4.42799 -6 ft 0 kts 296°
2026-05-05 14:03 51.95012 4.42799 -6 ft 4 kts 97°
2026-05-05 14:03 51.95067 4.42929 -6 ft 18 kts 60°
2026-05-05 14:03 51.95122 4.43070 -6 ft 13 kts 65°
2026-05-05 14:03 51.95165 4.43109 -6 ft 5 kts 327°
2026-05-05 14:04 51.95190 4.43097 -6 ft 0 kts
2026-05-05 14:04 51.95195 4.43098 -5 ft 7 kts
2026-05-05 14:04 51.95324 4.43143 -5 ft 23 kts 42°
2026-05-05 14:04 51.95369 4.43224 -6 ft 0 kts 59°
2026-05-05 14:05 51.95378 4.43245 -6 ft 13 kts 53°
2026-05-05 14:05 51.95504 4.43558 -7 ft 50 kts 54°
2026-05-05 14:06 51.95711 4.44107 82 ft 57 kts 57°
2026-05-05 14:06 51.95935 4.44683 176 ft 67 kts 55°
2026-05-05 14:06 51.96299 4.44817 365 ft 78 kts 317°
2026-05-05 14:06 51.96314 4.43834 442 ft 104 kts 255°
2026-05-05 14:07 51.96017 4.42712 628 ft 114 kts 249°
2026-05-05 14:07 51.95699 4.41453 627 ft 128 kts 250°
2026-05-05 14:07 51.95227 4.40301 626 ft 122 kts 198°
2026-05-05 14:07 51.94621 4.40768 585 ft 101 kts 92°
2026-05-05 14:08 51.94792 4.41784 321 ft 83 kts 59°
2026-05-05 14:08 51.95067 4.42485 136 ft 68 kts 56°
2026-05-05 14:08 51.95320 4.43110 39 ft 64 kts 56°
2026-05-05 14:08 51.95539 4.43653 -7 ft 51 kts 53°
2026-05-05 14:09 51.95740 4.44160 68 ft 51 kts 53°
2026-05-05 14:09 51.95966 4.44678 163 ft 60 kts 52°
2026-05-05 14:09 51.96354 4.44735 263 ft 86 kts 317°
2026-05-05 14:09 51.96324 4.43662 317 ft 111 kts 250°
2026-05-05 14:10 51.95982 4.42495 494 ft 115 kts 238°
2026-05-05 14:10 51.95562 4.41316 507 ft 128 kts 246°
2026-05-05 14:10 51.95008 4.40259 468 ft 126 kts 174°
2026-05-05 14:10 51.94629 4.41171 490 ft 107 kts 77°
2026-05-05 14:11 51.94946 4.42191 347 ft 80 kts 52°
2026-05-05 14:11 51.95216 4.42836 314 ft 64 kts 55°
2026-05-05 14:11 51.95439 4.43450 339 ft 64 kts 60°
2026-05-05 14:11 51.95675 4.44065 390 ft 65 kts 53°
2026-05-05 14:12 51.95925 4.44675 418 ft 66 kts 47°
2026-05-05 14:12 51.96365 4.44765 394 ft 78 kts 334°
2026-05-05 14:12 51.96469 4.43880 359 ft 94 kts 248°
2026-05-05 14:12 51.96247 4.43257 328 ft 97 kts 240°
2026-05-05 14:13 51.95897 4.42292 348 ft 100 kts 241°
2026-05-05 14:13 51.95581 4.41295 375 ft 99 kts 245°
2026-05-05 14:13 51.95134 4.40562 357 ft 89 kts 165°
2026-05-05 14:13 51.94842 4.41225 325 ft 76 kts 89°
2026-05-05 14:14 51.94929 4.42058 230 ft 74 kts 66°
2026-05-05 14:14 51.95267 4.42972 57 ft 68 kts 55°
2026-05-05 14:14 51.95438 4.43395 4 ft 63 kts 56°
2026-05-05 14:14 51.95651 4.43922 -1 ft 59 kts 53°
2026-05-05 14:15 51.95995 4.44790 161 ft 75 kts 55°
2026-05-05 14:15 51.96202 4.45258 300 ft 77 kts 52°
2026-05-05 14:15 51.96658 4.45667 473 ft 89 kts 354°
2026-05-05 14:15 51.96994 4.44853 744 ft 99 kts 263°
2026-05-05 14:16 51.96575 4.43913 921 ft 105 kts 229°
2026-05-05 14:16 51.96104 4.43029 1184 ft 104 kts 233°
2026-05-05 14:16 51.95672 4.42063 1417 ft 106 kts 238°
2026-05-05 14:16 51.95283 4.41021 1561 ft 114 kts 243°
2026-05-05 14:17 51.94856 4.39939 1623 ft 104 kts 211°
2026-05-05 14:17 51.94372 4.40293 1372 ft 87 kts 95°
2026-05-05 14:17 51.94540 4.41186 1031 ft 81 kts 54°
2026-05-05 14:17 51.94834 4.41914 660 ft 73 kts 52°
2026-05-05 14:18 51.95113 4.42584 311 ft 68 kts 57°
2026-05-05 14:18 51.95358 4.43199 40 ft 62 kts 56°
2026-05-05 14:18 51.95554 4.43689 -7 ft 53 kts 58°
2026-05-05 14:18 51.95782 4.44254 57 ft 64 kts 54°
2026-05-05 14:19 51.96034 4.44868 195 ft 64 kts 54°
2026-05-05 14:19 51.96294 4.45454 352 ft 64 kts 52°
2026-05-05 14:19 51.96660 4.45360 450 ft 91 kts 291°
2026-05-05 14:19 51.96535 4.44209 497 ft 116 kts 250°
2026-05-05 14:20 51.96194 4.42989 506 ft 120 kts 244°
2026-05-05 14:20 51.95777 4.41820 512 ft 118 kts 243°
2026-05-05 14:20 51.95283 4.40989 444 ft 92 kts 174°
2026-05-05 14:20 51.94938 4.41532 352 ft 68 kts 94°
2026-05-05 14:21 51.94999 4.42250 196 ft 62 kts 66°
2026-05-05 14:21 51.95209 4.42823 68 ft 56 kts 57°
2026-05-05 14:21 51.95420 4.43349 8 ft 55 kts 55°
2026-05-05 14:21 51.95619 4.43835 -6 ft 57 kts 58°
2026-05-05 14:22 51.95842 4.44401 104 ft 60 kts 55°
2026-05-05 14:22 51.96068 4.44970 234 ft 59 kts 54°
2026-05-05 14:22 51.96459 4.45001 360 ft 83 kts 320°
2026-05-05 14:22 51.96434 4.43914 410 ft 112 kts 252°
2026-05-05 14:23 51.96103 4.42722 496 ft 121 kts 245°
2026-05-05 14:23 51.95695 4.41552 648 ft 119 kts 243°
2026-05-05 14:23 51.95163 4.40778 644 ft 92 kts 165°
2026-05-05 14:23 51.94810 4.41394 548 ft 73 kts 92°
2026-05-05 14:24 51.94930 4.42100 320 ft 65 kts 58°
2026-05-05 14:24 51.95148 4.42688 157 ft 59 kts 52°
2026-05-05 14:24 51.95366 4.43220 27 ft 54 kts 56°
2026-05-05 14:24 51.95567 4.43713 30 ft 50 kts 57°
2026-05-05 14:25 51.95797 4.44273 89 ft 65 kts 55°
2026-05-05 14:25 51.96047 4.44910 268 ft 66 kts 56°
2026-05-05 14:25 51.96352 4.45454 448 ft 71 kts 11°
2026-05-05 14:25 51.96669 4.44729 534 ft 101 kts 279°
2026-05-05 14:26 51.96473 4.43615 487 ft 107 kts 238°
2026-05-05 14:26 51.96099 4.42683 369 ft 91 kts 239°
2026-05-05 14:26 51.95774 4.41841 255 ft 84 kts 239°
2026-05-05 14:26 51.95518 4.41174 177 ft 73 kts 241°